createdAt,value
2023-05-14T00:00:22.277Z,15.43
2023-05-14T00:02:49.084Z,15.07
2023-05-14T00:05:15.585Z,14.98
2023-05-14T00:07:41.977Z,14.03
2023-05-14T00:10:08.832Z,16.48
2023-05-14T00:12:35.189Z,13.73
2023-05-14T00:15:01.622Z,16.27
2023-05-14T00:17:28.124Z,16.17
2023-05-14T00:19:54.525Z,17.03
2023-05-14T00:22:20.914Z,16.23
2023-05-14T00:24:47.294Z,16.45
2023-05-14T00:27:13.940Z,15.32
2023-05-14T00:29:40.335Z,14.80
2023-05-14T00:32:07.107Z,15.23
2023-05-14T00:34:33.562Z,13.55
2023-05-14T00:36:59.924Z,15.45
2023-05-14T00:39:26.260Z,14.57
2023-05-14T00:41:52.620Z,15.88
2023-05-14T00:44:19.036Z,14.93
2023-05-14T00:46:45.454Z,14.20
2023-05-14T00:49:12.015Z,15.13
2023-05-14T00:51:39.402Z,14.55
2023-05-14T00:54:06.342Z,15.70
2023-05-14T00:56:32.750Z,16.00
2023-05-14T00:58:59.394Z,15.18
2023-05-14T01:01:28.490Z,13.52
2023-05-14T01:03:57.733Z,13.90
2023-05-14T01:06:39.887Z,17.35
2023-05-14T01:09:17.206Z,14.53
2023-05-14T01:11:55.616Z,16.90
2023-05-14T01:14:34.531Z,14.30
2023-05-14T01:17:04.029Z,12.73
2023-05-14T01:19:37.908Z,12.43
2023-05-14T01:22:04.501Z,14.87
2023-05-14T01:24:30.982Z,12.18
2023-05-14T01:27:06.994Z,17.95
2023-05-14T01:29:37.279Z,15.95
2023-05-14T01:32:07.302Z,13.93
2023-05-14T01:34:36.276Z,16.43
2023-05-14T01:37:04.065Z,14.65
2023-05-14T01:39:32.457Z,16.45
2023-05-14T01:42:00.484Z,14.77
2023-05-14T01:44:26.892Z,13.35
2023-05-14T01:46:53.249Z,14.80
2023-05-14T01:49:19.635Z,15.45
2023-05-14T01:51:46.042Z,13.88
2023-05-14T01:54:12.391Z,15.43
2023-05-14T01:56:38.737Z,14.30
2023-05-14T01:59:05.219Z,14.60
2023-05-14T02:01:31.715Z,15.65
2023-05-14T02:03:58.184Z,18.63
2023-05-14T02:06:24.523Z,14.98
2023-05-14T02:08:50.918Z,14.65
2023-05-14T02:11:17.337Z,16.30
2023-05-14T02:13:43.839Z,13.73
2023-05-14T02:16:10.279Z,16.50
2023-05-14T02:18:36.688Z,14.90
2023-05-14T02:21:03.123Z,14.95
2023-05-14T02:23:40.370Z,14.30
2023-05-14T02:26:08.439Z,18.90
2023-05-14T02:28:34.803Z,13.20
2023-05-14T02:31:01.544Z,16.30
2023-05-14T02:33:28.366Z,15.13
2023-05-14T02:35:54.766Z,15.70
2023-05-14T02:38:21.167Z,16.25
2023-05-14T02:40:47.518Z,16.27
2023-05-14T02:43:13.886Z,13.73
2023-05-14T02:45:40.226Z,15.38
2023-05-14T02:48:06.730Z,18.00
2023-05-14T02:50:33.151Z,13.38
2023-05-14T02:52:59.991Z,16.65
2023-05-14T02:55:26.460Z,13.35
2023-05-14T02:57:53.275Z,16.30
2023-05-14T03:00:19.905Z,15.00
2023-05-14T03:02:46.756Z,16.63
2023-05-14T03:05:13.612Z,16.10
2023-05-14T03:07:39.944Z,16.55
2023-05-14T03:10:06.744Z,16.15
2023-05-14T03:12:33.111Z,14.23
2023-05-14T03:14:59.454Z,16.73
2023-05-14T03:17:25.815Z,15.48
2023-05-14T03:19:52.201Z,13.77
2023-05-14T03:22:18.654Z,15.55
2023-05-14T03:24:44.996Z,14.70
2023-05-14T03:27:11.346Z,16.17
2023-05-14T03:29:37.709Z,18.55
2023-05-14T03:32:04.394Z,17.60
2023-05-14T03:34:30.791Z,12.32
2023-05-14T03:36:57.258Z,14.70
2023-05-14T03:39:23.715Z,16.08
2023-05-14T03:41:50.070Z,15.50
2023-05-14T03:44:16.459Z,19.73
2023-05-14T03:46:42.856Z,16.17
2023-05-14T03:49:09.288Z,14.43
2023-05-14T03:51:35.691Z,17.08
2023-05-14T03:54:03.295Z,15.13
2023-05-14T03:56:29.617Z,22.73
2023-05-14T03:58:56.045Z,17.65
2023-05-14T04:01:22.393Z,14.13
2023-05-14T04:03:48.899Z,14.65
2023-05-14T04:06:16.105Z,14.23
2023-05-14T04:08:42.496Z,14.82
2023-05-14T04:11:08.849Z,14.43
2023-05-14T04:13:35.262Z,15.40
2023-05-14T04:16:01.650Z,13.82
2023-05-14T04:18:28.113Z,17.23
2023-05-14T04:20:54.544Z,16.92
2023-05-14T04:23:21.725Z,17.08
2023-05-14T04:25:48.070Z,16.77
2023-05-14T04:28:14.924Z,13.43
2023-05-14T04:30:41.264Z,15.75
2023-05-14T04:33:07.852Z,17.60
2023-05-14T04:35:34.292Z,12.63
2023-05-14T04:38:00.774Z,14.23
2023-05-14T04:40:27.487Z,12.98
2023-05-14T04:42:53.924Z,17.10
2023-05-14T04:45:20.387Z,12.48
2023-05-14T04:47:47.236Z,15.27
2023-05-14T04:50:13.694Z,15.47
2023-05-14T04:52:40.282Z,16.02
2023-05-14T04:55:07.244Z,13.85
2023-05-14T04:57:33.611Z,11.88
2023-05-14T04:59:59.966Z,13.10
2023-05-14T05:02:26.335Z,16.07
2023-05-14T05:04:52.773Z,15.10
2023-05-14T05:07:19.130Z,13.70
2023-05-14T05:09:45.557Z,16.38
2023-05-14T05:12:11.976Z,15.43
2023-05-14T05:14:38.348Z,13.00
2023-05-14T05:17:04.990Z,14.80
2023-05-14T05:19:42.583Z,14.20
2023-05-14T05:22:10.344Z,12.52
2023-05-14T05:24:36.691Z,11.27
2023-05-14T05:27:03.469Z,10.03
2023-05-14T05:29:29.882Z,13.48
2023-05-14T05:31:56.287Z,11.68
2023-05-14T05:34:22.873Z,13.40
2023-05-14T05:36:49.244Z,13.20
2023-05-14T05:39:15.587Z,15.00
2023-05-14T05:41:42.470Z,10.50
2023-05-14T05:44:08.818Z,12.80
2023-05-14T05:46:35.279Z,12.70
2023-05-14T05:49:01.691Z,12.32
2023-05-14T05:51:28.025Z,12.20
2023-05-14T05:53:54.357Z,12.32
2023-05-14T05:56:22.050Z,12.15
2023-05-14T05:58:48.387Z,10.93
2023-05-14T06:01:14.792Z,13.10
2023-05-14T06:03:41.191Z,11.93
2023-05-14T06:06:07.740Z,11.20
2023-05-14T06:08:34.121Z,13.40
2023-05-14T06:11:00.475Z,14.55
2023-05-14T06:13:26.853Z,12.15
2023-05-14T06:15:53.220Z,11.70
2023-05-14T06:18:19.583Z,11.80
2023-05-14T06:20:45.929Z,12.05
2023-05-14T06:23:12.442Z,15.80
2023-05-14T06:25:38.922Z,11.98
2023-05-14T06:28:05.254Z,12.67
2023-05-14T06:30:31.685Z,13.55
2023-05-14T06:32:58.046Z,12.50
2023-05-14T06:35:24.532Z,9.88
2023-05-14T06:37:50.878Z,12.05
2023-05-14T06:40:17.566Z,10.97
2023-05-14T06:42:43.956Z,11.30
2023-05-14T06:45:10.924Z,13.52
2023-05-14T06:47:37.353Z,11.32
2023-05-14T06:50:04.205Z,12.77
2023-05-14T06:52:30.622Z,15.07
2023-05-14T06:54:57.002Z,9.38
2023-05-14T06:57:23.366Z,13.82
2023-05-14T06:59:49.729Z,12.10
2023-05-14T07:02:16.195Z,15.40
2023-05-14T07:04:42.602Z,11.83
2023-05-14T07:07:10.554Z,10.13
2023-05-14T07:09:36.908Z,13.18
2023-05-14T07:12:03.492Z,11.75
2023-05-14T07:14:29.857Z,11.05
2023-05-14T07:16:57.230Z,11.63
2023-05-14T07:19:23.687Z,12.40
2023-05-14T07:21:50.033Z,13.57
2023-05-14T07:24:16.416Z,11.25
2023-05-14T07:26:43.737Z,11.18
2023-05-14T07:29:10.073Z,11.73
2023-05-14T07:31:36.483Z,10.55
2023-05-14T07:34:02.839Z,10.50
2023-05-14T07:36:29.289Z,13.18
2023-05-14T07:38:55.662Z,11.52
2023-05-14T07:41:22.013Z,12.47
2023-05-14T07:43:48.395Z,10.10
2023-05-14T07:46:14.995Z,12.55
2023-05-14T07:48:41.406Z,12.70
2023-05-14T07:51:07.809Z,13.27
2023-05-14T07:53:34.164Z,12.03
2023-05-14T07:56:00.549Z,13.70
2023-05-14T07:58:28.025Z,11.13
2023-05-14T08:00:54.623Z,15.70
2023-05-14T08:03:21.153Z,10.02
2023-05-14T08:05:47.717Z,12.93
2023-05-14T08:08:14.068Z,12.75
2023-05-14T08:10:40.485Z,12.30
2023-05-14T08:13:06.942Z,13.90
2023-05-14T08:15:33.296Z,12.95
2023-05-14T08:18:03.456Z,13.67
2023-05-14T08:20:31.105Z,11.00
2023-05-14T08:23:01.490Z,12.43
2023-05-14T08:25:27.842Z,12.07
2023-05-14T08:27:54.337Z,14.27
2023-05-14T08:30:22.831Z,12.83
2023-05-14T08:32:49.495Z,14.38
2023-05-14T08:35:16.589Z,14.45
2023-05-14T08:37:42.959Z,13.15
2023-05-14T08:40:09.996Z,14.88
2023-05-14T08:42:40.443Z,12.50
2023-05-14T08:45:15.857Z,11.60
2023-05-14T08:47:44.714Z,11.20
2023-05-14T08:50:11.380Z,11.82
2023-05-14T08:52:37.959Z,11.18
2023-05-14T08:55:06.316Z,11.93
2023-05-14T08:57:34.097Z,13.20
2023-05-14T09:00:01.359Z,9.88
2023-05-14T09:02:29.933Z,13.32
2023-05-14T09:04:59.011Z,11.10
2023-05-14T09:07:26.056Z,12.47
2023-05-14T09:09:53.429Z,11.90
2023-05-14T09:12:20.665Z,11.60
2023-05-14T09:14:48.442Z,10.57
2023-05-14T09:17:15.361Z,10.65
2023-05-14T09:19:43.610Z,9.87
2023-05-14T09:22:13.062Z,12.55
2023-05-14T09:24:39.878Z,12.13
2023-05-14T09:27:06.750Z,12.63
2023-05-14T09:29:33.960Z,9.80
2023-05-14T09:32:05.514Z,9.50
2023-05-14T09:34:37.985Z,12.77
2023-05-14T09:37:06.468Z,9.27
2023-05-14T09:39:34.195Z,11.18
2023-05-14T09:42:01.174Z,11.75
2023-05-14T09:44:28.023Z,9.37
2023-05-14T09:46:54.804Z,11.20
2023-05-14T09:49:21.582Z,10.07
2023-05-14T09:51:51.237Z,9.32
2023-05-14T09:54:17.629Z,10.30
2023-05-14T09:56:44.409Z,10.10
2023-05-14T09:59:11.004Z,10.60
2023-05-14T10:01:37.936Z,8.88
2023-05-14T10:04:07.133Z,10.45
2023-05-14T10:06:36.934Z,9.80
2023-05-14T10:09:05.581Z,12.97
2023-05-14T10:11:35.995Z,9.15
2023-05-14T10:14:08.971Z,9.88
2023-05-14T10:16:40.849Z,12.13
2023-05-14T10:19:11.900Z,10.82
2023-05-14T10:21:40.909Z,13.03
2023-05-14T10:24:09.127Z,11.82
2023-05-14T10:26:39.297Z,11.48
2023-05-14T10:29:06.516Z,10.65
2023-05-14T10:31:55.319Z,9.32
2023-05-14T10:34:38.367Z,8.53
2023-05-14T10:37:08.280Z,9.88
2023-05-14T10:39:49.637Z,9.07
2023-05-14T10:42:32.170Z,9.30
2023-05-14T10:45:02.348Z,9.23
2023-05-14T10:47:29.209Z,9.93
2023-05-14T10:49:57.877Z,11.05
2023-05-14T10:52:25.173Z,7.72
2023-05-14T10:54:56.560Z,9.15
2023-05-14T10:57:24.708Z,11.68
2023-05-14T10:59:55.580Z,9.53
2023-05-14T11:02:26.933Z,12.15
2023-05-14T11:04:56.116Z,12.38
2023-05-14T11:07:34.413Z,10.13
2023-05-14T11:10:03.403Z,11.52
2023-05-14T11:12:30.212Z,9.93
2023-05-14T11:14:58.584Z,9.05
2023-05-14T11:17:30.032Z,9.65
2023-05-14T11:19:57.452Z,8.95
2023-05-14T11:22:24.554Z,9.82
2023-05-14T11:24:51.178Z,8.97
2023-05-14T11:27:18.653Z,7.80
2023-05-14T11:29:46.721Z,11.13
2023-05-14T11:32:14.727Z,9.65
2023-05-14T11:34:42.876Z,12.13
2023-05-14T11:37:10.187Z,10.27
2023-05-14T11:39:39.679Z,9.63
2023-05-14T11:42:12.170Z,8.13
2023-05-14T11:44:38.851Z,6.07
2023-05-14T11:47:05.558Z,10.27
2023-05-14T11:49:32.404Z,6.27
2023-05-14T11:52:00.141Z,9.60
2023-05-14T11:54:28.203Z,8.18
2023-05-14T11:56:56.288Z,9.57
2023-05-14T11:59:28.011Z,11.32
2023-05-14T12:01:55.424Z,9.60
2023-05-14T12:04:22.818Z,10.90
2023-05-14T12:06:50.512Z,9.02
2023-05-14T12:09:18.353Z,8.45
2023-05-14T12:11:48.820Z,8.40
2023-05-14T12:14:17.349Z,9.80
2023-05-14T12:16:44.643Z,8.32
2023-05-14T12:19:12.327Z,10.40
2023-05-14T12:21:39.197Z,7.70
2023-05-14T12:24:09.040Z,7.75
2023-05-14T12:26:35.584Z,7.03
2023-05-14T12:29:03.421Z,11.27
2023-05-14T12:31:31.589Z,8.10
2023-05-14T12:33:58.136Z,8.48
2023-05-14T12:36:24.672Z,8.30
2023-05-14T12:38:56.932Z,8.33
2023-05-14T12:41:23.306Z,10.88
2023-05-14T12:43:49.744Z,9.00
2023-05-14T12:46:16.996Z,7.05
2023-05-14T12:48:43.424Z,6.95
2023-05-14T12:51:09.827Z,8.53
2023-05-14T12:53:36.172Z,8.05
2023-05-14T12:56:02.587Z,8.90
2023-05-14T12:58:29.053Z,7.85
2023-05-14T13:00:56.358Z,6.68
2023-05-14T13:03:23.052Z,6.50
2023-05-14T13:05:52.166Z,6.30
2023-05-14T13:08:21.401Z,8.32
2023-05-14T13:10:47.936Z,9.27
2023-05-14T13:13:15.952Z,9.20
2023-05-14T13:15:42.667Z,8.40
2023-05-14T13:18:09.083Z,11.05
2023-05-14T13:20:35.641Z,6.72
2023-05-14T13:23:01.969Z,8.90
2023-05-14T13:25:28.366Z,8.48
2023-05-14T13:27:55.185Z,10.60
2023-05-14T13:30:21.704Z,7.18
2023-05-14T13:32:48.321Z,7.57
2023-05-14T13:35:14.995Z,11.00
2023-05-14T13:37:43.230Z,10.10
2023-05-14T13:40:10.306Z,9.60
2023-05-14T13:42:37.260Z,7.25
2023-05-14T13:45:04.098Z,8.65
2023-05-14T13:47:31.206Z,9.15
2023-05-14T13:49:57.571Z,9.73
2023-05-14T13:52:23.956Z,6.57
2023-05-14T13:54:50.420Z,7.13
2023-05-14T13:57:16.777Z,8.07
2023-05-14T13:59:43.147Z,7.55
2023-05-14T14:02:09.513Z,8.20
2023-05-14T14:04:35.851Z,8.33
2023-05-14T14:07:02.188Z,6.68
2023-05-14T14:09:28.554Z,11.60
2023-05-14T14:11:55.059Z,9.25
2023-05-14T14:14:21.434Z,8.95
2023-05-14T14:16:47.801Z,11.30
2023-05-14T14:19:16.155Z,7.30
2023-05-14T14:21:43.426Z,10.73
2023-05-14T14:24:09.771Z,8.75
2023-05-14T14:26:36.263Z,7.30
2023-05-14T14:29:02.635Z,8.70
2023-05-14T14:31:28.996Z,7.03
2023-05-14T14:33:55.437Z,8.32
2023-05-14T14:36:21.899Z,8.63
2023-05-14T14:38:48.249Z,10.25
2023-05-14T14:41:14.589Z,7.93
2023-05-14T14:43:41.113Z,8.82
2023-05-14T14:46:09.743Z,7.18
2023-05-14T14:48:39.951Z,9.80
2023-05-14T14:51:07.307Z,8.07
2023-05-14T14:53:34.320Z,8.10
2023-05-14T14:56:01.000Z,9.90
2023-05-14T14:58:27.785Z,7.40
2023-05-14T15:00:56.282Z,7.20
2023-05-14T15:03:23.651Z,8.65
2023-05-14T15:05:51.669Z,6.53
2023-05-14T15:08:18.080Z,6.35
2023-05-14T15:10:44.683Z,8.80
2023-05-14T15:13:12.298Z,8.60
2023-05-14T15:15:38.640Z,9.13
2023-05-14T15:18:05.271Z,8.77
2023-05-14T15:20:31.790Z,11.35
2023-05-14T15:22:58.234Z,7.47
2023-05-14T15:25:25.314Z,12.57
2023-05-14T15:27:51.955Z,10.10
2023-05-14T15:30:18.397Z,7.60
2023-05-14T15:32:45.710Z,8.57
2023-05-14T15:35:12.445Z,8.50
2023-05-14T15:37:41.840Z,7.53
2023-05-14T15:40:09.250Z,8.90
2023-05-14T15:42:36.433Z,10.17
2023-05-14T15:45:02.947Z,6.40
2023-05-14T15:47:29.470Z,8.50
2023-05-14T15:49:55.880Z,7.28
2023-05-14T15:52:22.991Z,12.38
2023-05-14T15:54:49.375Z,6.63
2023-05-14T15:57:17.835Z,5.28
2023-05-14T15:59:46.684Z,6.13
2023-05-14T16:02:14.256Z,7.95
2023-05-14T16:04:40.632Z,7.93
2023-05-14T16:07:09.833Z,8.07
2023-05-14T16:09:36.822Z,10.30
2023-05-14T16:12:04.304Z,11.95
2023-05-14T16:14:30.738Z,8.10
2023-05-14T16:16:57.230Z,8.52
2023-05-14T16:19:23.604Z,8.10
2023-05-14T16:21:49.989Z,11.20
2023-05-14T16:24:18.402Z,7.70
2023-05-14T16:26:44.826Z,9.13
2023-05-14T16:29:11.507Z,8.88
2023-05-14T16:31:38.275Z,8.27
2023-05-14T16:34:04.641Z,9.23
2023-05-14T16:36:31.364Z,10.82
2023-05-14T16:39:07.274Z,10.70
2023-05-14T16:41:35.644Z,9.80
2023-05-14T16:44:02.545Z,9.50
2023-05-14T16:46:29.386Z,10.20
2023-05-14T16:48:56.152Z,8.63
2023-05-14T16:51:22.586Z,8.35
2023-05-14T16:53:49.078Z,8.35
2023-05-14T16:56:15.524Z,9.90
2023-05-14T16:58:41.976Z,9.27
2023-05-14T17:01:09.794Z,9.70
2023-05-14T17:03:36.783Z,10.25
2023-05-14T17:06:03.470Z,12.10
2023-05-14T17:08:33.332Z,8.83
2023-05-14T17:10:59.717Z,11.15
2023-05-14T17:13:26.240Z,9.63
2023-05-14T17:15:52.779Z,10.18
2023-05-14T17:18:19.290Z,12.98
2023-05-14T17:20:45.761Z,11.40
2023-05-14T17:23:20.366Z,7.25
2023-05-14T17:25:47.859Z,10.10
2023-05-14T17:28:16.308Z,8.10
2023-05-14T17:30:43.930Z,11.98
2023-05-14T17:33:11.286Z,12.30
2023-05-14T17:35:37.824Z,10.20
2023-05-14T17:38:06.610Z,12.15
2023-05-14T17:40:34.567Z,10.82
2023-05-14T17:43:01.128Z,10.57
2023-05-14T17:45:28.554Z,12.50
2023-05-14T17:47:57.049Z,10.88
2023-05-14T17:50:23.476Z,10.40
2023-05-14T17:52:49.847Z,17.65
2023-05-14T17:55:17.497Z,8.85
2023-05-14T17:57:43.893Z,8.17
2023-05-14T18:00:10.854Z,11.30
2023-05-14T18:02:37.521Z,7.88
2023-05-14T18:05:04.271Z,10.05
2023-05-14T18:07:30.835Z,10.82
2023-05-14T18:09:57.832Z,11.73
2023-05-14T18:12:27.704Z,9.90
2023-05-14T18:14:54.330Z,10.63
2023-05-14T18:17:21.070Z,9.98
2023-05-14T18:19:47.613Z,9.40
2023-05-14T18:22:14.209Z,10.27
2023-05-14T18:24:40.641Z,12.10
2023-05-14T18:27:06.995Z,10.05
2023-05-14T18:29:33.466Z,8.07
2023-05-14T18:31:59.869Z,9.45
2023-05-14T18:34:26.330Z,6.87
2023-05-14T18:36:52.711Z,9.60
2023-05-14T18:39:19.213Z,7.50
2023-05-14T18:41:45.634Z,10.93
2023-05-14T18:44:11.980Z,9.93
2023-05-14T18:46:38.454Z,7.40
2023-05-14T18:49:04.844Z,8.18
2023-05-14T18:51:38.380Z,5.82
2023-05-14T18:54:04.755Z,8.82
2023-05-14T18:56:31.264Z,7.05
2023-05-14T18:58:57.614Z,8.53
2023-05-14T19:01:25.612Z,9.27
2023-05-14T19:03:53.239Z,9.60
2023-05-14T19:06:19.857Z,10.25
2023-05-14T19:08:46.404Z,8.38
2023-05-14T19:11:12.887Z,7.90
2023-05-14T19:13:39.267Z,8.55
2023-05-14T19:16:05.814Z,7.15
2023-05-14T19:18:32.357Z,10.07
2023-05-14T19:20:58.981Z,12.20
2023-05-14T19:23:25.399Z,9.27
2023-05-14T19:25:51.777Z,7.72
2023-05-14T19:28:19.863Z,10.48
2023-05-14T19:30:47.876Z,8.13
2023-05-14T19:33:19.490Z,11.18
2023-05-14T19:35:47.392Z,8.40
2023-05-14T19:38:14.677Z,8.40
2023-05-14T19:40:42.991Z,9.57
2023-05-14T19:43:11.681Z,9.50
2023-05-14T19:45:39.348Z,8.43
2023-05-14T19:48:06.593Z,9.20
2023-05-14T19:50:33.657Z,7.35
2023-05-14T19:53:00.426Z,7.30
2023-05-14T19:55:26.952Z,8.50
2023-05-14T19:57:53.415Z,8.48
2023-05-14T20:00:20.772Z,6.87
2023-05-14T20:02:54.516Z,10.88
2023-05-14T20:05:27.501Z,6.97
2023-05-14T20:07:56.906Z,10.38
2023-05-14T20:10:24.121Z,11.52
2023-05-14T20:12:50.706Z,13.00
2023-05-14T20:15:17.068Z,9.27
2023-05-14T20:17:43.595Z,12.00
2023-05-14T20:20:10.916Z,13.32
2023-05-14T20:22:38.310Z,9.55
2023-05-14T20:25:05.219Z,12.57
2023-05-14T20:27:32.603Z,10.57
2023-05-14T20:29:58.980Z,13.02
2023-05-14T20:32:25.421Z,9.55
2023-05-14T20:34:51.956Z,15.93
2023-05-14T20:37:19.801Z,10.57
2023-05-14T20:39:46.680Z,11.93
2023-05-14T20:42:13.132Z,8.93
2023-05-14T20:44:39.895Z,8.23
2023-05-14T20:47:06.292Z,9.35
2023-05-14T20:49:32.628Z,9.87
2023-05-14T20:51:58.969Z,10.68
2023-05-14T20:54:25.555Z,8.70
2023-05-14T20:56:51.977Z,10.73
2023-05-14T20:59:18.312Z,9.90
2023-05-14T21:01:44.678Z,7.30
2023-05-14T21:04:11.168Z,10.07
2023-05-14T21:06:37.647Z,9.32
2023-05-14T21:09:04.095Z,8.80
2023-05-14T21:11:30.453Z,11.82
2023-05-14T21:13:57.448Z,8.80
2023-05-14T21:16:23.822Z,8.65
2023-05-14T21:18:50.254Z,9.98
2023-05-14T21:21:16.707Z,10.07
2023-05-14T21:23:43.131Z,7.05
2023-05-14T21:26:09.549Z,9.17
2023-05-14T21:28:35.878Z,9.60
2023-05-14T21:31:02.228Z,10.25
2023-05-14T21:33:28.978Z,10.55
2023-05-14T21:35:55.465Z,10.57
2023-05-14T21:38:21.846Z,9.77
2023-05-14T21:40:48.184Z,10.05
2023-05-14T21:43:14.600Z,8.93
2023-05-14T21:45:40.955Z,9.40
2023-05-14T21:48:07.919Z,9.85
2023-05-14T21:50:34.379Z,10.60
2023-05-14T21:53:00.780Z,9.18
2023-05-14T21:55:28.134Z,9.25
2023-05-14T21:57:54.700Z,7.68
2023-05-14T22:00:24.021Z,8.95
2023-05-14T22:02:52.373Z,10.63
2023-05-14T22:05:19.509Z,11.70
2023-05-14T22:07:45.931Z,10.20
2023-05-14T22:10:13.776Z,11.32
2023-05-14T22:12:40.765Z,10.38
2023-05-14T22:15:08.455Z,9.83
2023-05-14T22:17:35.038Z,10.80
2023-05-14T22:20:02.386Z,9.88
2023-05-14T22:22:28.821Z,10.65
2023-05-14T22:24:55.660Z,12.88
2023-05-14T22:27:23.070Z,10.80
2023-05-14T22:29:49.412Z,12.93
2023-05-14T22:32:15.768Z,8.57
2023-05-14T22:34:42.251Z,11.27
2023-05-14T22:37:08.901Z,12.55
2023-05-14T22:39:35.664Z,10.13
2023-05-14T22:42:02.048Z,12.57
2023-05-14T22:44:29.899Z,10.98
2023-05-14T22:46:56.718Z,10.73
2023-05-14T22:49:23.300Z,11.75
2023-05-14T22:51:54.043Z,10.57
2023-05-14T22:54:20.931Z,9.43
2023-05-14T22:56:47.505Z,9.50
2023-05-14T22:59:13.904Z,10.10
2023-05-14T23:01:40.262Z,11.55
2023-05-14T23:04:06.692Z,10.63
2023-05-14T23:06:33.120Z,13.25
2023-05-14T23:08:59.481Z,10.95
2023-05-14T23:11:26.607Z,12.48
2023-05-14T23:13:52.974Z,11.85
2023-05-14T23:16:20.396Z,12.23
2023-05-14T23:18:46.907Z,13.55
2023-05-14T23:21:14.154Z,13.38
2023-05-14T23:23:40.581Z,13.05
2023-05-14T23:26:06.937Z,14.48
2023-05-14T23:28:33.352Z,13.10
2023-05-14T23:30:59.776Z,12.30
2023-05-14T23:33:26.480Z,12.85
2023-05-14T23:35:53.006Z,13.57
2023-05-14T23:38:19.560Z,13.18
2023-05-14T23:40:45.917Z,16.20
2023-05-14T23:43:12.258Z,13.38
2023-05-14T23:45:38.670Z,13.25
2023-05-14T23:48:05.589Z,12.77
2023-05-14T23:50:31.962Z,13.73
2023-05-14T23:52:58.349Z,16.03
2023-05-14T23:55:24.883Z,16.55
2023-05-14T23:57:51.441Z,12.02
